Time;durP1;ratioP1;P1;durP2;ratioP2;P2;SDS_P1;SDS_P2;PMS_P1;PMS_P2;Temp;Humidity;BMP_temperature;BMP_pressure;BME280_temperature;BME280_humidity;BME280_pressure;Samples;Min_cycle;Max_cycle;Signal;HPM_P1;HPM_P2
2022/01/17 00:02:20;;;;;;;28.63;13.90;;;1.10;98.30;;;;;;4988741;28;20488;-59
2022/01/17 00:04:47;;;;;;;26.23;12.83;;;1.10;98.30;;;;;;4986585;28;20435;-59
2022/01/17 00:07:13;;;;;;;26.00;13.70;;;1.10;98.30;;;;;;4982558;28;20617;-59
2022/01/17 00:09:38;;;;;;;24.53;13.30;;;1.10;98.70;;;;;;4987208;28;20435;-58
2022/01/17 00:12:04;;;;;;;24.60;13.73;;;1.10;98.80;;;;;;4988096;28;20246;-60
2022/01/17 00:14:34;;;;;;;28.73;13.57;;;1.10;99.10;;;;;;4988552;28;20199;-59
2022/01/17 00:19:54;;;;;;;24.77;13.20;;;1.10;99.10;;;;;;4986233;28;20694;-57
2022/01/17 00:22:21;;;;;;;25.87;13.77;;;1.10;99.20;;;;;;4988225;28;20453;-60
2022/01/17 00:24:47;;;;;;;28.93;13.53;;;1.10;99.30;;;;;;4987068;28;20454;-60
2022/01/17 00:27:14;;;;;;;27.37;13.23;;;1.10;99.50;;;;;;4988474;28;20430;-59
2022/01/17 00:29:40;;;;;;;24.23;13.60;;;1.10;99.50;;;;;;4987249;28;20820;-59
2022/01/17 00:32:07;;;;;;;24.33;12.83;;;1.10;99.40;;;;;;4982768;28;20475;-57
2022/01/17 00:34:33;;;;;;;23.77;13.13;;;1.10;99.40;;;;;;4983675;28;20202;-59
2022/01/17 00:36:59;;;;;;;19.87;11.50;;;1.10;99.60;;;;;;4986881;28;20957;-59
2022/01/17 00:39:24;;;;;;;21.10;11.67;;;1.10;99.80;;;;;;4981727;28;20435;-59
2022/01/17 00:41:51;;;;;;;23.60;11.97;;;1.20;99.80;;;;;;4981230;28;20306;-58
2022/01/17 00:44:22;;;;;;;24.43;11.90;;;1.10;99.90;;;;;;4988006;28;20426;-60
2022/01/17 00:46:49;;;;;;;23.17;11.30;;;1.20;99.90;;;;;;4987667;28;20442;-60
2022/01/17 00:49:15;;;;;;;19.90;10.13;;;1.20;99.90;;;;;;4981777;28;20439;-59
2022/01/17 00:51:41;;;;;;;21.30;10.30;;;1.20;99.90;;;;;;4985323;28;20475;-58
2022/01/17 00:54:06;;;;;;;21.60;10.70;;;1.20;99.90;;;;;;4987898;28;20951;-58
2022/01/17 00:56:32;;;;;;;23.90;11.63;;;1.30;99.90;;;;;;4982083;28;20274;-59
2022/01/17 00:58:58;;;;;;;23.03;10.80;;;1.20;99.90;;;;;;4987415;28;20259;-57
2022/01/17 01:01:24;;;;;;;23.73;12.00;;;1.30;99.90;;;;;;4990671;28;20199;-60
2022/01/17 01:03:50;;;;;;;23.17;10.70;;;1.30;99.90;;;;;;4988255;28;20641;-58
2022/01/17 01:06:16;;;;;;;17.73;10.23;;;1.20;99.90;;;;;;4989904;28;20207;-60
2022/01/17 01:08:41;;;;;;;19.10;10.03;;;1.20;99.90;;;;;;4989424;28;20195;-58
2022/01/17 01:11:08;;;;;;;20.50;9.53;;;1.20;99.90;;;;;;4987627;28;21005;-60
2022/01/17 01:13:34;;;;;;;21.20;11.60;;;1.20;99.90;;;;;;4986264;28;20192;-58
2022/01/17 01:28:58;;;;;;;17.93;9.00;;;1.10;99.90;;;;;;4990052;28;21082;-59
2022/01/17 01:31:38;;;;;;;18.67;8.77;;;1.10;99.90;;;;;;4987652;28;20549;-58
2022/01/17 01:34:06;;;;;;;16.07;8.40;;;1.10;99.90;;;;;;4982044;28;20211;-59
2022/01/17 01:36:33;;;;;;;16.97;9.17;;;1.10;99.90;;;;;;4991667;28;21192;-56
2022/01/17 01:38:59;;;;;;;19.50;9.40;;;1.10;99.90;;;;;;4988124;28;20443;-59
2022/01/17 01:41:24;;;;;;;21.53;10.13;;;1.10;99.90;;;;;;4989905;28;20465;-58
2022/01/17 01:43:50;;;;;;;23.73;11.13;;;1.10;99.90;;;;;;4989587;28;20189;-59
2022/01/17 01:46:19;;;;;;;19.63;9.67;;;1.20;99.90;;;;;;4987971;28;20571;-57
2022/01/17 01:48:45;;;;;;;24.10;11.53;;;1.20;99.90;;;;;;4988215;28;20223;-59
2022/01/17 01:51:11;;;;;;;23.23;12.23;;;1.20;99.90;;;;;;4990164;28;20481;-60
2022/01/17 01:53:38;;;;;;;25.87;13.00;;;1.20;99.90;;;;;;4988535;28;20444;-59
2022/01/17 01:56:04;;;;;;;28.97;14.33;;;1.20;99.90;;;;;;4987465;28;20439;-60
2022/01/17 01:58:30;;;;;;;24.37;13.63;;;1.20;99.90;;;;;;4986258;28;20583;-59
2022/01/17 02:00:56;;;;;;;22.60;12.63;;;1.10;99.90;;;;;;4989210;28;20530;-60
2022/01/17 02:03:22;;;;;;;21.47;11.23;;;1.10;99.90;;;;;;4987163;28;20184;-60
2022/01/17 02:05:48;;;;;;;22.30;11.17;;;1.10;99.90;;;;;;4990953;28;20923;-58
2022/01/17 02:08:15;;;;;;;21.70;11.40;;;1.00;99.90;;;;;;4987870;28;20465;-57
2022/01/17 02:10:41;;;;;;;23.70;11.60;;;1.00;99.90;;;;;;4986283;28;20569;-60
2022/01/17 02:13:07;;;;;;;21.80;11.27;;;1.00;99.90;;;;;;4986057;28;20468;-60
2022/01/17 02:15:36;;;;;;;19.67;11.30;;;1.00;99.90;;;;;;4989118;28;20437;-59
2022/01/17 02:18:01;;;;;;;20.50;10.40;;;1.00;99.90;;;;;;4987494;28;20443;-59
2022/01/17 02:23:08;;;;;;;18.60;10.13;;;1.00;99.90;;;;;;4986668;28;20197;-58
2022/01/17 02:25:33;;;;;;;22.03;9.90;;;1.00;99.90;;;;;;4987951;28;20598;-57
2022/01/17 02:27:59;;;;;;;21.67;10.37;;;1.00;99.90;;;;;;4986451;28;20915;-58
2022/01/17 02:30:27;;;;;;;19.13;9.73;;;1.00;99.90;;;;;;4987164;28;20211;-59
2022/01/17 02:32:53;;;;;;;21.13;10.57;;;1.00;99.90;;;;;;4988848;28;20438;-59
2022/01/17 02:35:22;;;;;;;20.00;10.27;;;1.00;99.90;;;;;;4983602;28;20462;-59
2022/01/17 02:37:48;;;;;;;21.53;10.27;;;1.00;99.90;;;;;;4986150;28;20526;-59
2022/01/17 02:40:16;;;;;;;20.73;11.80;;;1.00;99.90;;;;;;4985439;28;20435;-58
2022/01/17 02:42:43;;;;;;;22.47;10.13;;;1.00;99.90;;;;;;4986458;28;20446;-59
2022/01/17 02:45:30;;;;;;;20.33;10.63;;;1.00;99.90;;;;;;4986358;28;20453;-59
2022/01/17 02:47:59;;;;;;;19.80;10.10;;;0.90;99.90;;;;;;4987859;28;20589;-59
2022/01/17 02:50:24;;;;;;;22.27;11.20;;;0.90;99.90;;;;;;4982042;28;20462;-59
2022/01/17 02:52:50;;;;;;;27.50;11.40;;;0.90;99.90;;;;;;4983532;28;20465;-59
2022/01/17 02:55:15;;;;;;;20.50;11.40;;;0.90;99.90;;;;;;4986623;28;20187;-59
2022/01/17 02:57:41;;;;;;;16.77;10.40;;;0.90;99.90;;;;;;4982975;28;20710;-59
2022/01/17 03:00:10;;;;;;;26.30;11.60;;;0.90;99.90;;;;;;4986011;28;20198;-59
2022/01/17 03:02:36;;;;;;;17.80;10.07;;;0.90;99.90;;;;;;4982761;28;20305;-60
2022/01/17 03:05:10;;;;;;;24.73;12.10;;;0.90;99.90;;;;;;4986618;28;20522;-59
2022/01/17 03:07:36;;;;;;;19.73;10.93;;;0.90;99.90;;;;;;4984837;28;20183;-60
2022/01/17 03:10:03;;;;;;;16.37;9.77;;;0.90;99.90;;;;;;4985676;28;20429;-59
2022/01/17 03:12:30;;;;;;;17.43;10.00;;;0.90;99.90;;;;;;4985982;28;20455;-60
2022/01/17 03:14:56;;;;;;;20.30;10.73;;;0.80;99.90;;;;;;4985887;28;20508;-57
2022/01/17 03:17:22;;;;;;;19.50;10.50;;;0.80;99.90;;;;;;4986627;28;20431;-60
2022/01/17 03:19:48;;;;;;;19.70;11.37;;;0.80;99.90;;;;;;4985757;28;20423;-59
2022/01/17 03:22:14;;;;;;;21.57;10.30;;;0.80;99.90;;;;;;4983675;28;20213;-59
2022/01/17 03:24:39;;;;;;;17.93;10.47;;;0.80;99.90;;;;;;4981702;28;20208;-59
2022/01/17 03:27:05;;;;;;;17.67;10.27;;;0.80;99.90;;;;;;4984685;28;20242;-59
2022/01/17 03:29:31;;;;;;;19.90;11.63;;;0.80;99.90;;;;;;4984667;28;20672;-60
2022/01/17 03:31:57;;;;;;;18.10;10.67;;;0.70;99.90;;;;;;4984153;28;20207;-60
2022/01/17 03:34:22;;;;;;;16.40;10.20;;;0.70;99.90;;;;;;4983023;28;20731;-59
2022/01/17 03:36:48;;;;;;;17.80;9.30;;;0.70;99.90;;;;;;4985780;28;20443;-58
2022/01/17 03:39:14;;;;;;;17.23;10.57;;;0.70;99.90;;;;;;4985538;28;20507;-59
2022/01/17 03:41:40;;;;;;;18.90;10.70;;;0.60;99.90;;;;;;4983705;28;20210;-57
2022/01/17 03:44:07;;;;;;;18.00;10.00;;;0.60;99.90;;;;;;4984431;28;20527;-59
2022/01/17 03:46:33;;;;;;;20.37;10.17;;;0.60;99.90;;;;;;4982756;28;20503;-58
2022/01/17 03:48:59;;;;;;;19.00;9.57;;;0.60;99.90;;;;;;4984582;28;20458;-58
2022/01/17 03:51:25;;;;;;;19.60;10.10;;;0.60;99.90;;;;;;4982008;28;20474;-58
2022/01/17 03:53:51;;;;;;;13.07;8.50;;;0.60;99.90;;;;;;4985536;28;20559;-58
2022/01/17 03:56:19;;;;;;;18.67;10.07;;;0.60;99.90;;;;;;4984677;28;20486;-59
2022/01/17 03:58:47;;;;;;;16.03;9.80;;;0.60;99.90;;;;;;4983722;28;20191;-58
2022/01/17 04:01:13;;;;;;;14.60;8.63;;;0.60;99.90;;;;;;4984153;28;20473;-59
2022/01/17 04:03:39;;;;;;;19.53;10.10;;;0.60;99.90;;;;;;4983278;28;20434;-59
2022/01/17 04:06:05;;;;;;;14.83;8.27;;;0.70;99.90;;;;;;4985895;28;20426;-59
2022/01/17 04:08:31;;;;;;;15.50;9.13;;;0.70;99.90;;;;;;4983879;28;20434;-60
2022/01/17 04:10:57;;;;;;;18.30;10.37;;;0.70;99.90;;;;;;4984675;28;20589;-59
2022/01/17 04:13:23;;;;;;;18.93;9.70;;;0.70;99.90;;;;;;5003833;23;20587;-57
2022/01/17 04:15:49;;;;;;;16.47;9.20;;;0.70;99.90;;;;;;4995380;28;20175;-56
2022/01/17 04:18:19;;;;;;;16.70;9.67;;;0.70;99.90;;;;;;4993289;28;20434;-57
2022/01/17 04:20:45;;;;;;;18.43;10.33;;;0.70;99.90;;;;;;4988518;28;20483;-57
2022/01/17 04:23:12;;;;;;;18.67;9.90;;;0.70;99.90;;;;;;4983418;28;20521;-55
2022/01/17 04:25:40;;;;;;;18.50;10.20;;;0.80;99.90;;;;;;4986335;28;20184;-53
2022/01/17 04:28:07;;;;;;;18.97;9.90;;;0.80;99.90;;;;;;4981792;28;20487;-59
2022/01/17 04:30:34;;;;;;;15.80;9.47;;;0.80;99.90;;;;;;4983777;28;20482;-57
2022/01/17 04:33:00;;;;;;;19.10;10.00;;;0.80;99.90;;;;;;4984337;28;20452;-56
2022/01/17 04:35:27;;;;;;;18.40;9.70;;;0.80;99.90;;;;;;4987595;28;20480;-57
2022/01/17 04:37:56;;;;;;;16.00;9.40;;;0.80;99.90;;;;;;4986416;28;20176;-57
2022/01/17 04:40:23;;;;;;;16.97;9.60;;;0.80;99.90;;;;;;4986796;28;20426;-56
2022/01/17 04:42:53;;;;;;;16.37;9.50;;;0.80;99.90;;;;;;4984386;28;20450;-58
2022/01/17 04:45:20;;;;;;;20.43;9.57;;;0.80;99.90;;;;;;4988712;28;20431;-56
2022/01/17 04:47:49;;;;;;;18.10;8.73;;;0.80;99.90;;;;;;4985739;28;20529;-57
2022/01/17 04:50:19;;;;;;;14.97;8.53;;;0.80;99.90;;;;;;4983949;28;20491;-57
2022/01/17 04:52:46;;;;;;;15.53;8.83;;;0.80;99.90;;;;;;4983928;28;20461;-58
2022/01/17 04:55:14;;;;;;;16.23;8.60;;;0.80;99.90;;;;;;4977656;28;20454;-53
2022/01/17 04:57:41;;;;;;;14.13;8.83;;;0.80;99.90;;;;;;4978333;28;20505;-53
2022/01/17 05:00:10;;;;;;;15.63;9.17;;;0.80;99.90;;;;;;4984761;28;20438;-54
2022/01/17 05:02:36;;;;;;;15.13;8.57;;;0.80;99.90;;;;;;4986529;28;20458;-59
2022/01/17 05:05:04;;;;;;;15.73;8.60;;;0.80;99.90;;;;;;4989214;28;20434;-56
2022/01/17 05:07:31;;;;;;;18.03;9.07;;;0.90;99.90;;;;;;4984373;28;20271;-57
2022/01/17 05:09:57;;;;;;;21.60;9.43;;;0.90;99.90;;;;;;5000685;28;20437;-59
2022/01/17 05:12:24;;;;;;;16.87;8.73;;;0.90;99.90;;;;;;5003533;28;20546;-59
2022/01/17 05:14:51;;;;;;;26.97;10.40;;;0.90;99.90;;;;;;4985415;28;20176;-59
2022/01/17 05:19:57;;;;;;;23.73;10.70;;;1.00;99.90;;;;;;4977082;28;20854;-56
2022/01/17 05:22:26;;;;;;;18.97;10.23;;;1.00;99.90;;;;;;4983505;28;20459;-59
2022/01/17 05:24:53;;;;;;;18.07;9.20;;;1.00;99.90;;;;;;4984053;28;20774;-55
2022/01/17 05:27:19;;;;;;;16.67;9.30;;;1.00;99.90;;;;;;4983712;28;20459;-58
2022/01/17 05:29:46;;;;;;;13.00;7.37;;;1.00;99.90;;;;;;4981120;28;20436;-57
2022/01/17 05:32:12;;;;;;;17.23;8.67;;;1.10;99.90;;;;;;4985463;28;20479;-57
2022/01/17 05:34:40;;;;;;;19.53;9.30;;;1.10;99.90;;;;;;4980889;28;20476;-58
2022/01/17 05:37:13;;;;;;;17.30;8.77;;;1.10;99.90;;;;;;4973732;28;20439;-58
2022/01/17 05:39:40;;;;;;;14.90;8.47;;;1.10;99.90;;;;;;4996153;28;20717;-58
2022/01/17 05:42:07;;;;;;;13.37;8.37;;;1.10;99.90;;;;;;4986269;28;20466;-58
2022/01/17 05:44:33;;;;;;;17.07;9.40;;;1.20;99.90;;;;;;4986490;28;20466;-59
2022/01/17 05:47:00;;;;;;;15.70;8.53;;;1.20;99.90;;;;;;4998944;28;20612;-58
2022/01/17 05:49:25;;;;;;;16.67;9.33;;;1.10;99.90;;;;;;4984356;28;20233;-55
2022/01/17 05:51:51;;;;;;;13.43;7.90;;;1.10;99.90;;;;;;4984183;28;20459;-63
2022/01/17 05:54:17;;;;;;;18.60;8.40;;;1.10;99.90;;;;;;4981799;28;20948;-58
2022/01/17 05:56:43;;;;;;;15.00;9.27;;;1.10;99.90;;;;;;4987934;28;20188;-58
2022/01/17 05:59:09;;;;;;;14.83;8.90;;;1.10;99.90;;;;;;4985311;28;20211;-54
2022/01/17 06:01:39;;;;;;;13.23;8.50;;;1.10;99.90;;;;;;4981335;28;20987;-56
2022/01/17 06:04:05;;;;;;;17.70;9.00;;;1.10;99.90;;;;;;4972127;28;20450;-58
2022/01/17 06:06:31;;;;;;;15.23;8.87;;;1.10;99.90;;;;;;5006101;28;20446;-59
2022/01/17 06:08:56;;;;;;;15.20;8.07;;;1.10;99.90;;;;;;4996504;28;20442;-56
2022/01/17 06:11:22;;;;;;;15.20;9.00;;;1.10;99.90;;;;;;4984860;28;20291;-55
2022/01/17 06:13:48;;;;;;;19.20;10.00;;;1.10;99.90;;;;;;4979160;28;20279;-56
2022/01/17 06:16:13;;;;;;;15.60;8.70;;;1.10;99.90;;;;;;4984549;28;20617;-58
2022/01/17 06:18:39;;;;;;;16.40;8.93;;;1.10;99.90;;;;;;4977199;28;20275;-58
2022/01/17 06:21:05;;;;;;;19.57;9.40;;;1.00;99.90;;;;;;4996496;28;20332;-60
2022/01/17 06:23:31;;;;;;;22.27;9.97;;;1.00;99.90;;;;;;5005414;28;20208;-60
2022/01/17 06:25:56;;;;;;;17.00;9.93;;;1.00;99.90;;;;;;5009179;28;20184;-60
2022/01/17 06:28:22;;;;;;;19.20;9.47;;;1.00;99.90;;;;;;5005318;28;20183;-59
2022/01/17 06:30:49;;;;;;;21.33;9.50;;;1.00;99.90;;;;;;5006561;28;20192;-58
2022/01/17 06:33:15;;;;;;;17.63;9.77;;;1.00;99.90;;;;;;5003727;28;20238;-60
2022/01/17 06:35:41;;;;;;;18.80;10.33;;;1.00;99.90;;;;;;4995457;28;20766;-58
2022/01/17 06:38:07;;;;;;;15.83;9.40;;;1.00;99.90;;;;;;5001356;28;20446;-59
2022/01/17 06:40:33;;;;;;;16.90;9.60;;;1.00;99.90;;;;;;5006964;28;20304;-62
2022/01/17 06:42:58;;;;;;;18.30;10.03;;;1.00;99.90;;;;;;5007703;28;20223;-59
2022/01/17 06:45:24;;;;;;;20.70;10.87;;;1.00;99.90;;;;;;5008394;28;20171;-60
2022/01/17 06:47:50;;;;;;;21.97;11.73;;;1.10;99.90;;;;;;5009739;28;20551;-60
2022/01/17 06:50:15;;;;;;;16.80;10.47;;;1.10;99.90;;;;;;5024644;28;20180;-60
2022/01/17 06:52:41;;;;;;;22.10;10.37;;;1.10;99.90;;;;;;5003144;28;20511;-59
2022/01/17 06:55:08;;;;;;;20.60;9.83;;;1.10;99.90;;;;;;5002705;28;20187;-64
2022/01/17 06:57:35;;;;;;;20.37;10.50;;;1.10;99.90;;;;;;5004086;28;20191;-62
2022/01/17 07:00:01;;;;;;;19.20;10.23;;;1.10;99.90;;;;;;4992713;28;20468;-55
2022/01/17 07:02:26;;;;;;;18.37;9.60;;;1.10;99.90;;;;;;4989906;28;20454;-58
2022/01/17 07:04:52;;;;;;;16.60;9.67;;;1.10;99.90;;;;;;5000819;28;20519;-55
2022/01/17 07:07:20;;;;;;;16.00;9.10;;;1.20;99.90;;;;;;5007056;28;20184;-60
2022/01/17 07:09:46;;;;;;;17.67;9.00;;;1.20;99.90;;;;;;4998295;28;20674;-56
2022/01/17 07:12:11;;;;;;;14.57;8.60;;;1.20;99.90;;;;;;4982488;28;20547;-55
2022/01/17 07:14:41;;;;;;;14.97;8.07;;;1.30;99.90;;;;;;4983396;28;20680;-56
2022/01/17 07:17:09;;;;;;;16.67;8.57;;;1.30;99.90;;;;;;4985446;28;20233;-57
2022/01/17 07:19:35;;;;;;;16.30;8.87;;;1.30;99.90;;;;;;4987023;28;20437;-54
2022/01/17 07:22:00;;;;;;;19.50;9.67;;;1.30;99.90;;;;;;4996675;28;20449;-60
2022/01/17 07:24:26;;;;;;;16.00;9.07;;;1.30;99.90;;;;;;4999231;28;20437;-57
2022/01/17 07:26:52;;;;;;;16.93;8.27;;;1.30;99.90;;;;;;5001811;28;20298;-60
2022/01/17 07:29:17;;;;;;;15.00;8.73;;;1.40;99.90;;;;;;5005690;28;20196;-65
2022/01/17 07:31:43;;;;;;;15.47;7.97;;;1.40;99.90;;;;;;4986596;28;20645;-57
2022/01/17 07:34:09;;;;;;;16.27;8.63;;;1.40;99.90;;;;;;4987377;28;20187;-62
2022/01/17 07:36:35;;;;;;;18.07;9.10;;;1.40;99.90;;;;;;4986772;28;20264;-58
2022/01/17 07:39:00;;;;;;;16.17;9.07;;;1.40;99.90;;;;;;4986488;28;20436;-56
2022/01/17 07:41:27;;;;;;;17.57;9.20;;;1.40;99.90;;;;;;4984027;28;20184;-58
2022/01/17 07:43:53;;;;;;;17.87;9.13;;;1.50;99.90;;;;;;4984364;28;20199;-61
2022/01/17 07:46:25;;;;;;;16.13;9.40;;;1.50;99.90;;;;;;4983895;28;20471;-60
2022/01/17 07:49:10;;;;;;;15.43;7.87;;;1.50;99.90;;;;;;4986268;28;20448;-56
2022/01/17 07:52:13;;;;;;;16.17;9.23;;;1.50;99.90;;;;;;4996564;28;20545;-56
2022/01/17 07:54:43;;;;;;;17.00;8.40;;;1.50;99.90;;;;;;4978726;28;20470;-58
2022/01/17 07:57:10;;;;;;;14.33;7.83;;;1.50;99.90;;;;;;4983791;28;20473;-59
2022/01/17 07:59:36;;;;;;;15.93;8.57;;;1.50;99.90;;;;;;4983063;28;20436;-57
2022/01/17 08:02:02;;;;;;;16.90;9.00;;;1.50;99.90;;;;;;4982003;28;20450;-58
2022/01/17 08:04:28;;;;;;;14.50;8.03;;;1.40;99.90;;;;;;4977109;28;20258;-58
2022/01/17 08:06:55;;;;;;;22.40;9.33;;;1.50;99.90;;;;;;4982971;28;21388;-57
2022/01/17 08:09:30;;;;;;;12.50;7.63;;;1.50;99.90;;;;;;4978091;28;20436;-54
2022/01/17 08:11:57;;;;;;;15.10;8.87;;;1.50;99.90;;;;;;4982511;28;21006;-56
2022/01/17 08:14:24;;;;;;;28.63;9.80;;;1.50;99.90;;;;;;4980660;28;20538;-56
2022/01/17 08:16:53;;;;;;;14.47;8.40;;;1.60;99.90;;;;;;4980471;28;20507;-53
2022/01/17 08:19:23;;;;;;;13.30;8.00;;;1.60;99.90;;;;;;4981789;28;20754;-54
2022/01/17 08:21:51;;;;;;;12.17;7.30;;;1.60;99.90;;;;;;4983923;28;20436;-55
2022/01/17 08:24:18;;;;;;;10.50;5.27;;;1.70;99.90;;;;;;4977988;28;20834;-54
2022/01/17 08:26:44;;;;;;;13.20;6.90;;;1.80;99.90;;;;;;4984282;28;20442;-56
2022/01/17 08:29:13;;;;;;;19.57;11.30;;;1.80;99.90;;;;;;4981385;28;20771;-57
2022/01/17 08:31:42;;;;;;;24.20;14.07;;;1.90;99.90;;;;;;4981188;28;20190;-58
2022/01/17 08:34:09;;;;;;;23.37;12.47;;;2.00;99.90;;;;;;4981689;28;20870;-55
2022/01/17 08:36:35;;;;;;;29.83;14.83;;;2.00;99.90;;;;;;4978876;28;20843;-59
2022/01/17 08:39:01;;;;;;;25.73;12.57;;;2.00;99.90;;;;;;4992127;28;20468;-56
2022/01/17 08:41:26;;;;;;;22.93;12.40;;;2.00;99.90;;;;;;4975234;28;20187;-57
2022/01/17 08:43:52;;;;;;;20.00;10.87;;;2.00;99.90;;;;;;4986870;28;20621;-58
2022/01/17 08:46:18;;;;;;;19.30;9.97;;;2.10;99.90;;;;;;5003275;28;20191;-59
2022/01/17 08:48:43;;;;;;;23.07;9.47;;;2.10;99.90;;;;;;5001842;28;20634;-58
2022/01/17 08:51:09;;;;;;;20.60;9.10;;;2.10;99.90;;;;;;4982926;28;20208;-57
2022/01/17 08:53:35;;;;;;;27.73;10.73;;;2.20;99.90;;;;;;4989931;28;20441;-55
2022/01/17 08:56:02;;;;;;;21.20;12.27;;;2.20;99.90;;;;;;4984284;28;20211;-57
2022/01/17 08:58:27;;;;;;;19.67;11.07;;;2.30;99.90;;;;;;4980296;28;20428;-56
2022/01/17 09:00:54;;;;;;;20.93;10.80;;;2.30;99.90;;;;;;4989091;28;20430;-57
2022/01/17 09:03:21;;;;;;;18.03;9.43;;;2.40;99.90;;;;;;4995742;28;20185;-60
2022/01/17 09:05:48;;;;;;;13.37;7.90;;;2.40;99.90;;;;;;5004670;28;20429;-62
2022/01/17 09:08:14;;;;;;;11.90;6.97;;;2.50;99.90;;;;;;4994378;28;20431;-58
2022/01/17 09:10:40;;;;;;;12.97;7.43;;;2.50;99.90;;;;;;4983848;28;20836;-56
2022/01/17 09:13:07;;;;;;;12.67;7.80;;;2.60;99.90;;;;;;4976692;28;20261;-56
2022/01/17 09:15:33;;;;;;;13.30;7.93;;;2.70;99.90;;;;;;4974288;28;20440;-56
2022/01/17 09:17:59;;;;;;;10.97;6.63;;;2.70;99.90;;;;;;4988289;28;20442;-57
2022/01/17 09:20:25;;;;;;;12.27;6.53;;;2.80;99.90;;;;;;4987471;28;20913;-56
2022/01/17 09:22:51;;;;;;;5.87;4.20;;;2.90;99.90;;;;;;4976619;28;20198;-57
2022/01/17 09:25:17;;;;;;;4.40;3.43;;;3.00;99.90;;;;;;4975146;28;20451;-53
2022/01/17 09:27:43;;;;;;;4.93;3.33;;;3.10;99.90;;;;;;4981000;28;20641;-56
2022/01/17 09:30:12;;;;;;;3.93;3.10;;;3.20;99.90;;;;;;4988211;28;20433;-51
2022/01/17 09:32:38;;;;;;;3.80;3.20;;;3.30;99.90;;;;;;4982550;28;21134;-56
2022/01/17 09:35:08;;;;;;;3.60;3.20;;;3.40;99.90;;;;;;4985861;28;20928;-57
2022/01/17 09:37:34;;;;;;;6.43;3.50;;;3.40;99.90;;;;;;4977328;28;20581;-59
2022/01/17 09:40:00;;;;;;;6.50;3.50;;;3.30;99.90;;;;;;4981780;28;20515;-55
2022/01/17 09:42:26;;;;;;;3.83;2.60;;;3.40;99.90;;;;;;4988071;28;20470;-57
2022/01/17 09:44:51;;;;;;;2.73;2.43;;;3.30;99.90;;;;;;4975356;28;20190;-55
2022/01/17 09:47:18;;;;;;;2.67;2.40;;;3.30;99.90;;;;;;4974403;28;20444;-55
2022/01/17 09:49:54;;;;;;;2.70;2.20;;;3.30;99.90;;;;;;4987538;28;20668;-55
2022/01/17 09:54:53;;;;;;;2.20;2.00;;;3.40;99.90;;;;;;4978929;28;20454;-53
2022/01/17 09:57:20;;;;;;;2.50;2.20;;;3.30;99.90;;;;;;4981119;28;20541;-53
2022/01/17 09:59:46;;;;;;;4.43;2.80;;;3.40;99.90;;;;;;4984184;28;20528;-54
2022/01/17 10:02:16;;;;;;;2.80;2.60;;;3.40;99.90;;;;;;4978194;28;20558;-52
2022/01/17 10:04:42;;;;;;;3.93;3.00;;;3.40;99.90;;;;;;4977828;28;20170;-52
2022/01/17 10:07:08;;;;;;;3.40;3.03;;;3.40;99.90;;;;;;4977233;28;20476;-55
2022/01/17 10:09:35;;;;;;;3.20;2.57;;;3.40;99.90;;;;;;4986246;28;20207;-54
2022/01/17 10:12:11;;;;;;;2.87;2.57;;;3.50;99.90;;;;;;4982838;28;20200;-55
2022/01/17 10:14:42;;;;;;;3.40;2.90;;;3.50;99.90;;;;;;5019054;23;20592;-61
2022/01/17 10:17:16;;;;;;;8.37;3.17;;;3.50;99.90;;;;;;4999037;28;20477;-61
2022/01/17 10:19:43;;;;;;;3.80;3.20;;;3.60;99.90;;;;;;5007628;28;20433;-61
2022/01/17 10:22:16;;;;;;;3.30;3.00;;;3.60;99.90;;;;;;4990931;28;20546;-61
2022/01/17 10:24:56;;;;;;;3.20;2.67;;;3.60;99.90;;;;;;4994906;28;20820;-61
2022/01/17 10:35:22;;;;;;;2.80;2.10;;;3.80;99.90;;;;;;4988388;28;20562;-60
2022/01/17 10:38:01;;;;;;;3.20;1.90;;;3.90;99.90;;;;;;4988771;28;20543;-62
2022/01/17 10:40:30;;;;;;;4.53;1.77;;;3.90;99.90;;;;;;4978123;28;20415;-62
2022/01/17 10:42:58;;;;;;;1.87;1.67;;;4.00;99.90;;;;;;4983924;28;20498;-62
2022/01/17 10:45:33;;;;;;;3.10;1.80;;;4.00;99.90;;;;;;4988346;28;20960;-62
2022/01/17 10:48:01;;;;;;;2.10;1.70;;;4.20;99.90;;;;;;4991536;28;20653;-60
2022/01/17 10:50:38;;;;;;;2.07;1.70;;;4.20;99.90;;;;;;4984512;28;20448;-62
2022/01/17 10:53:10;;;;;;;3.03;1.80;;;4.30;99.90;;;;;;4995488;28;20470;-62
2022/01/17 10:55:45;;;;;;;2.10;1.90;;;4.40;99.90;;;;;;4986657;28;20460;-61
2022/01/17 10:58:15;;;;;;;1.90;1.60;;;4.50;99.30;;;;;;4990990;28;20437;-62
2022/01/17 11:00:46;;;;;;;3.30;2.20;;;4.60;97.80;;;;;;5002564;28;20412;-60
2022/01/17 11:03:14;;;;;;;1.43;1.33;;;4.60;97.20;;;;;;4977340;28;20444;-59
2022/01/17 11:05:43;;;;;;;1.70;1.60;;;4.70;96.60;;;;;;4999849;28;20423;-61
2022/01/17 11:08:09;;;;;;;1.80;1.70;;;4.80;94.50;;;;;;4990981;28;20427;-62
2022/01/17 11:10:38;;;;;;;1.47;1.37;;;4.80;94.10;;;;;;4972743;28;20431;-62
2022/01/17 11:13:10;;;;;;;2.03;1.30;;;4.90;93.00;;;;;;4991634;28;20432;-62
2022/01/17 11:15:38;;;;;;;1.43;1.33;;;5.00;93.00;;;;;;4990914;28;20514;-62
2022/01/17 11:18:17;;;;;;;1.30;1.20;;;5.00;92.00;;;;;;4972583;28;20436;-61
2022/01/17 11:20:44;;;;;;;2.50;1.37;;;5.10;90.20;;;;;;4991981;28;20494;-62
2022/01/17 11:23:10;;;;;;;2.60;1.80;;;5.10;88.70;;;;;;4990848;28;20539;-63
2022/01/17 11:25:37;;;;;;;1.93;1.40;;;5.20;84.80;;;;;;4988307;28;20524;-62
2022/01/17 11:28:06;;;;;;;2.50;1.90;;;5.20;85.10;;;;;;4987862;28;20184;-62
2022/01/17 11:30:34;;;;;;;1.43;1.33;;;5.20;86.00;;;;;;5007828;28;20461;-62
2022/01/17 11:33:04;;;;;;;3.50;1.60;;;5.20;84.60;;;;;;4996468;28;20455;-62
2022/01/17 11:35:31;;;;;;;1.27;1.13;;;5.20;81.10;;;;;;4983788;28;20440;-61
2022/01/17 11:38:00;;;;;;;2.20;1.23;;;5.20;80.20;;;;;;4985143;28;21219;-62
2022/01/17 11:40:33;;;;;;;1.40;1.30;;;5.20;81.30;;;;;;4967547;28;20442;-62
2022/01/17 11:42:59;;;;;;;1.80;1.20;;;5.20;82.00;;;;;;4981207;28;20474;-60
2022/01/17 11:45:25;;;;;;;1.50;1.40;;;5.10;81.10;;;;;;4977316;28;20445;-62
2022/01/17 11:48:05;;;;;;;2.57;1.57;;;5.10;81.50;;;;;;4982352;28;20851;-62
2022/01/17 11:50:40;;;;;;;4.20;1.53;;;5.10;80.60;;;;;;4992018;28;20235;-62
2022/01/17 11:53:12;;;;;;;3.47;1.40;;;5.00;81.20;;;;;;4982948;28;20460;-62
2022/01/17 11:55:43;;;;;;;1.40;1.30;;;5.00;80.10;;;;;;4989953;28;20520;-62
2022/01/17 11:58:19;;;;;;;1.87;1.73;;;5.00;82.00;;;;;;4980985;28;20660;-63
2022/01/17 12:00:57;;;;;;;2.10;1.33;;;4.90;83.00;;;;;;4986351;28;20979;-62
2022/01/17 12:03:46;;;;;;;1.47;1.37;;;4.90;83.30;;;;;;4978448;28;20451;-63
2022/01/17 12:06:33;;;;;;;1.70;1.60;;;4.90;84.00;;;;;;4985368;28;20498;-62
2022/01/17 12:09:18;;;;;;;1.47;1.37;;;4.90;84.60;;;;;;4991097;28;20427;-62
2022/01/17 12:11:45;;;;;;;2.60;1.80;;;4.90;85.90;;;;;;4980712;28;20464;-62
2022/01/17 12:14:44;;;;;;;1.60;1.50;;;4.90;85.70;;;;;;4974732;28;20984;-61
2022/01/17 12:17:25;;;;;;;1.57;1.47;;;4.80;86.90;;;;;;4979676;28;20446;-60
2022/01/17 12:20:03;;;;;;;2.73;2.53;;;4.80;86.70;;;;;;4989489;28;20537;-63
2022/01/17 12:22:39;;;;;;;1.60;1.50;;;4.80;88.50;;;;;;4973117;28;20439;-62
2022/01/17 12:25:24;;;;;;;2.10;1.30;;;4.80;90.10;;;;;;4978315;28;20451;-62
2022/01/17 12:27:51;;;;;;;1.90;1.70;;;4.70;90.60;;;;;;4986539;28;21006;-61
2022/01/17 12:30:18;;;;;;;1.40;1.30;;;4.70;91.80;;;;;;4985102;28;20509;-62
2022/01/17 12:32:46;;;;;;;1.60;1.50;;;4.60;92.90;;;;;;4982356;28;20499;-59
2022/01/17 12:35:19;;;;;;;2.97;1.90;;;4.60;94.30;;;;;;4981273;28;20546;-60
2022/01/17 12:37:49;;;;;;;3.20;2.43;;;4.60;95.80;;;;;;4988986;28;20440;-60
2022/01/17 12:40:51;;;;;;;1.67;1.50;;;4.50;98.50;;;;;;4987194;28;20428;-61
2022/01/17 12:43:17;;;;;;;1.83;1.73;;;4.50;99.40;;;;;;4960015;28;20488;-61
2022/01/17 12:45:56;;;;;;;4.37;2.20;;;4.50;99.90;;;;;;4984563;28;20474;-59
2022/01/17 12:48:24;;;;;;;2.07;1.67;;;4.40;99.90;;;;;;4988082;28;20183;-61
2022/01/17 12:50:51;;;;;;;2.30;2.10;;;4.30;99.90;;;;;;4987747;28;20463;-62
2022/01/17 12:53:21;;;;;;;3.17;1.97;;;4.30;99.90;;;;;;4975245;28;20528;-61
2022/01/17 12:55:53;;;;;;;2.40;1.70;;;4.20;99.90;;;;;;4994744;28;20427;-61
2022/01/17 12:58:29;;;;;;;1.80;1.70;;;4.10;99.90;;;;;;4990591;28;20428;-61
2022/01/17 13:01:10;;;;;;;4.77;2.13;;;4.10;99.90;;;;;;4993206;28;20462;-61
2022/01/17 13:03:40;;;;;;;2.60;1.97;;;4.10;99.90;;;;;;4993278;28;20459;-61
2022/01/17 13:06:09;;;;;;;3.60;2.70;;;4.10;99.90;;;;;;4982815;28;20455;-61
2022/01/17 13:08:36;;;;;;;2.80;2.20;;;4.00;99.90;;;;;;4983870;28;21018;-61
2022/01/17 13:11:12;;;;;;;2.40;2.20;;;4.00;99.90;;;;;;4990475;28;20513;-61
2022/01/17 13:13:48;;;;;;;2.03;1.80;;;4.00;99.90;;;;;;4987473;28;20463;-62
2022/01/17 13:16:16;;;;;;;2.43;2.10;;;4.10;99.90;;;;;;4990904;28;20452;-62
2022/01/17 13:18:42;;;;;;;1.83;1.73;;;4.10;99.90;;;;;;4978942;28;20461;-60
2022/01/17 13:21:07;;;;;;;2.03;1.83;;;4.10;99.90;;;;;;4990812;28;20458;-60
2022/01/17 13:23:49;;;;;;;4.10;2.23;;;4.10;99.90;;;;;;4981011;28;20581;-61